createdAt,value
2018-01-30T00:01:14.480Z,1.77
2018-01-30T00:03:43.226Z,1.50
2018-01-30T00:06:11.555Z,1.50
2018-01-30T00:08:40.325Z,1.20
2018-01-30T00:11:08.906Z,2.03
2018-01-30T00:13:37.226Z,1.30
2018-01-30T00:16:05.630Z,1.30
2018-01-30T00:18:34.246Z,1.17
2018-01-30T00:21:02.592Z,1.30
2018-01-30T00:23:30.962Z,1.50
2018-01-30T00:25:59.611Z,1.17
2018-01-30T00:28:27.949Z,0.83
2018-01-30T00:30:56.300Z,0.90
2018-01-30T00:33:24.665Z,1.00
2018-01-30T00:35:53.306Z,1.00
2018-01-30T00:38:21.657Z,1.13
2018-01-30T00:40:49.993Z,1.17
2018-01-30T00:43:18.339Z,0.90
2018-01-30T00:45:46.676Z,1.00
2018-01-30T00:48:15.054Z,0.80
2018-01-30T00:50:43.421Z,0.93
2018-01-30T00:53:12.056Z,1.00
2018-01-30T00:55:40.511Z,1.07
2018-01-30T00:58:08.828Z,0.70
2018-01-30T01:00:37.609Z,0.80
2018-01-30T01:03:06.366Z,0.80
2018-01-30T01:05:34.708Z,0.80
2018-01-30T01:08:03.034Z,1.07
2018-01-30T01:10:31.383Z,1.03
2018-01-30T01:13:00.114Z,1.10
2018-01-30T01:15:28.687Z,0.90
2018-01-30T01:17:57.056Z,0.90
2018-01-30T01:20:25.437Z,0.80
2018-01-30T01:22:53.761Z,0.87
2018-01-30T01:25:22.078Z,0.73
2018-01-30T01:27:50.426Z,0.87
2018-01-30T01:30:18.765Z,1.00
2018-01-30T01:32:47.529Z,0.80
2018-01-30T01:35:15.864Z,1.00
2018-01-30T01:37:44.183Z,0.80
2018-01-30T01:40:12.720Z,1.00
2018-01-30T01:42:41.463Z,0.80
2018-01-30T01:45:09.778Z,0.90
2018-01-30T01:47:38.710Z,1.00
2018-01-30T01:50:07.317Z,0.87
2018-01-30T01:52:35.625Z,0.90
2018-01-30T01:55:03.965Z,1.20
2018-01-30T01:57:32.862Z,0.90
2018-01-30T02:00:01.172Z,1.07
2018-01-30T02:02:29.517Z,1.10
2018-01-30T02:04:57.830Z,0.90
2018-01-30T02:07:26.189Z,1.00
2018-01-30T02:09:54.922Z,0.90
2018-01-30T02:12:23.238Z,1.00
2018-01-30T02:14:51.547Z,0.80
2018-01-30T02:17:19.916Z,0.80
2018-01-30T02:19:49.596Z,1.10
2018-01-30T02:22:18.185Z,1.00
2018-01-30T02:24:47.330Z,0.90
2018-01-30T02:27:15.737Z,1.00
2018-01-30T02:29:44.055Z,0.83
2018-01-30T02:32:12.799Z,1.10
2018-01-30T02:34:41.615Z,0.90
2018-01-30T02:37:10.298Z,1.03
2018-01-30T02:39:38.654Z,0.80
2018-01-30T02:42:06.986Z,0.70
2018-01-30T02:44:35.333Z,0.93
2018-01-30T02:47:03.680Z,0.83
2018-01-30T02:49:32.034Z,1.03
2018-01-30T02:52:00.370Z,0.70
2018-01-30T02:54:29.111Z,0.93
2018-01-30T02:56:57.489Z,0.90
2018-01-30T02:59:25.833Z,1.00
2018-01-30T03:01:54.174Z,0.90
2018-01-30T03:04:22.534Z,1.13
2018-01-30T03:06:50.874Z,0.90
2018-01-30T03:09:19.212Z,0.80
2018-01-30T03:11:47.592Z,1.00
2018-01-30T03:14:15.913Z,0.90
2018-01-30T03:16:44.264Z,0.90
2018-01-30T03:19:12.643Z,1.10
2018-01-30T03:21:41.353Z,0.90
2018-01-30T03:24:09.713Z,0.80
2018-01-30T03:26:38.463Z,0.67
2018-01-30T03:29:06.911Z,1.10
2018-01-30T03:31:35.244Z,0.90
2018-01-30T03:34:03.594Z,0.70
2018-01-30T03:36:31.913Z,0.80
2018-01-30T03:39:00.662Z,0.90
2018-01-30T03:41:29.448Z,0.70
2018-01-30T03:43:57.773Z,0.93
2018-01-30T03:46:26.098Z,0.97
2018-01-30T03:48:54.454Z,0.90
2018-01-30T03:51:22.801Z,0.80
2018-01-30T03:53:51.585Z,0.90
2018-01-30T03:56:20.334Z,1.00
2018-01-30T03:58:50.068Z,0.70
2018-01-30T04:01:18.445Z,1.00
2018-01-30T04:03:47.304Z,0.93
2018-01-30T04:06:15.617Z,0.70
2018-01-30T04:08:43.957Z,1.00
2018-01-30T04:11:12.339Z,0.70
2018-01-30T04:13:41.528Z,0.80
2018-01-30T04:16:09.870Z,0.70
2018-01-30T04:18:38.218Z,1.00
2018-01-30T04:21:06.905Z,0.80
2018-01-30T04:23:35.653Z,0.90
2018-01-30T04:26:04.012Z,0.90
2018-01-30T04:28:32.363Z,0.90
2018-01-30T04:31:01.081Z,0.87
2018-01-30T04:33:29.398Z,0.93
2018-01-30T04:35:57.750Z,0.90
2018-01-30T04:38:26.077Z,0.80
2018-01-30T04:40:54.792Z,0.90
2018-01-30T04:43:23.148Z,0.90
2018-01-30T04:45:51.865Z,0.70
2018-01-30T04:48:20.212Z,0.80
2018-01-30T04:50:48.958Z,0.90
2018-01-30T04:53:17.272Z,0.90
2018-01-30T04:55:46.019Z,1.03
2018-01-30T04:58:14.821Z,1.10
2018-01-30T05:00:43.138Z,0.90
2018-01-30T05:03:11.493Z,0.90
2018-01-30T05:05:40.250Z,0.97
2018-01-30T05:08:08.586Z,0.90
2018-01-30T05:10:36.941Z,0.80
2018-01-30T05:13:05.657Z,1.00
2018-01-30T05:15:33.973Z,1.07
2018-01-30T05:18:02.681Z,0.70
2018-01-30T05:20:31.369Z,1.00
2018-01-30T05:23:00.120Z,0.80
2018-01-30T05:25:30.117Z,0.80
2018-01-30T05:27:59.553Z,0.90
2018-01-30T05:30:27.929Z,0.77
2018-01-30T05:32:56.252Z,0.77
2018-01-30T05:35:24.992Z,0.80
2018-01-30T05:37:53.318Z,1.00
2018-01-30T05:40:22.156Z,0.83
2018-01-30T05:42:50.585Z,0.90
2018-01-30T05:45:18.902Z,0.80
2018-01-30T05:47:47.237Z,0.90
2018-01-30T05:50:16.081Z,0.80
2018-01-30T05:52:44.412Z,1.00
2018-01-30T05:55:12.761Z,0.80
2018-01-30T05:57:41.085Z,1.17
2018-01-30T06:00:09.426Z,0.87
2018-01-30T06:02:38.189Z,0.87
2018-01-30T06:05:06.568Z,0.90
2018-01-30T06:07:35.392Z,0.90
2018-01-30T06:10:03.945Z,1.00
2018-01-30T06:12:32.304Z,0.90
2018-01-30T06:15:00.700Z,1.10
2018-01-30T06:17:29.106Z,1.00
2018-01-30T06:19:57.954Z,1.00
2018-01-30T06:22:26.284Z,0.97
2018-01-30T06:24:54.644Z,1.07
2018-01-30T06:27:23.385Z,1.30
2018-01-30T06:29:52.006Z,0.90
2018-01-30T06:32:20.331Z,0.97
2018-01-30T06:34:48.642Z,1.10
2018-01-30T06:37:17.075Z,0.93
2018-01-30T06:39:46.124Z,1.07
2018-01-30T06:42:14.467Z,1.40
2018-01-30T06:44:42.822Z,1.10
2018-01-30T06:47:12.269Z,0.90
2018-01-30T06:49:40.876Z,0.93
2018-01-30T06:52:09.234Z,1.23
2018-01-30T06:54:37.563Z,1.50
2018-01-30T06:57:06.174Z,1.00
2018-01-30T06:59:34.505Z,0.90
2018-01-30T07:02:03.247Z,0.87
2018-01-30T07:04:31.705Z,1.00
2018-01-30T07:07:00.088Z,1.20
2018-01-30T07:09:28.406Z,1.03
2018-01-30T07:11:56.737Z,1.10
2018-01-30T07:14:25.146Z,0.90
2018-01-30T07:16:53.752Z,1.13
2018-01-30T07:19:22.210Z,0.90
2018-01-30T07:21:50.537Z,0.90
2018-01-30T07:24:19.250Z,1.00
2018-01-30T07:26:47.681Z,1.10
2018-01-30T07:29:16.400Z,0.90
2018-01-30T07:31:44.794Z,1.00
2018-01-30T07:34:13.118Z,0.90
2018-01-30T07:36:41.811Z,1.00
2018-01-30T07:39:10.570Z,1.00
2018-01-30T07:41:38.913Z,1.10
2018-01-30T07:44:07.275Z,1.10
2018-01-30T07:46:35.994Z,0.97
2018-01-30T07:49:04.622Z,1.00
2018-01-30T07:51:33.076Z,1.10
2018-01-30T07:54:01.554Z,0.90
2018-01-30T07:56:29.879Z,1.10
2018-01-30T07:58:59.358Z,1.30
2018-01-30T08:01:27.706Z,1.10
2018-01-30T08:03:56.033Z,1.20
2018-01-30T08:06:24.782Z,1.20
2018-01-30T08:08:53.133Z,1.20
2018-01-30T08:11:21.466Z,1.20
2018-01-30T08:13:50.224Z,1.30
2018-01-30T08:16:18.542Z,1.23
2018-01-30T08:18:48.148Z,1.10
2018-01-30T08:21:16.870Z,1.17
2018-01-30T08:23:45.214Z,1.10
2018-01-30T08:26:13.977Z,1.20
2018-01-30T08:28:42.569Z,1.40
2018-01-30T08:31:10.921Z,1.10
2018-01-30T08:33:39.238Z,1.83
2018-01-30T08:38:42.915Z,5.13
2018-01-30T08:41:12.270Z,21.77
2018-01-30T08:43:40.607Z,15.87
2018-01-30T08:46:09.424Z,16.30
2018-01-30T08:48:37.804Z,12.90
2018-01-30T08:51:06.162Z,12.20
2018-01-30T08:53:34.859Z,12.33
2018-01-30T08:56:03.219Z,9.50
2018-01-30T08:58:31.686Z,8.23
2018-01-30T09:01:00.182Z,7.03
2018-01-30T09:03:28.548Z,6.60
2018-01-30T09:05:57.342Z,6.37
2018-01-30T09:08:26.058Z,5.97
2018-01-30T09:10:54.426Z,5.50
2018-01-30T09:13:22.979Z,5.40
2018-01-30T09:15:51.425Z,5.23
2018-01-30T09:18:19.778Z,4.73
2018-01-30T09:20:48.766Z,4.93
2018-01-30T09:23:17.136Z,4.90
2018-01-30T09:25:45.926Z,4.17
2018-01-30T09:28:14.315Z,4.20
2018-01-30T09:30:43.093Z,3.30
2018-01-30T09:33:11.469Z,3.30
2018-01-30T09:35:40.663Z,3.50
2018-01-30T09:38:09.037Z,3.40
2018-01-30T09:40:37.400Z,2.70
2018-01-30T09:43:05.766Z,2.80
2018-01-30T09:45:35.094Z,2.67
2018-01-30T09:48:03.421Z,2.80
2018-01-30T09:50:31.774Z,2.20
2018-01-30T09:53:00.617Z,2.60
2018-01-30T09:55:29.018Z,2.30
2018-01-30T09:57:57.707Z,2.60
2018-01-30T10:00:26.461Z,2.20
2018-01-30T10:02:54.834Z,2.30
2018-01-30T10:05:23.271Z,3.63
2018-01-30T10:07:52.017Z,2.80
2018-01-30T10:10:20.373Z,3.20
2018-01-30T10:12:48.767Z,2.80
2018-01-30T10:15:17.090Z,3.17
2018-01-30T10:17:45.811Z,2.83
2018-01-30T10:20:14.154Z,2.63
2018-01-30T10:22:42.901Z,2.87
2018-01-30T10:25:11.282Z,2.30
2018-01-30T10:27:39.611Z,2.40
2018-01-30T10:30:07.932Z,2.77
2018-01-30T10:32:36.290Z,2.60
2018-01-30T10:35:04.677Z,1.63
2018-01-30T10:37:33.293Z,2.30
2018-01-30T10:40:01.616Z,2.20
2018-01-30T10:42:30.298Z,2.03
2018-01-30T10:44:58.714Z,2.00
2018-01-30T10:47:27.493Z,2.40
2018-01-30T10:49:56.113Z,2.00
2018-01-30T10:52:24.431Z,2.50
2018-01-30T10:54:52.843Z,1.90
2018-01-30T10:57:22.779Z,2.00
2018-01-30T10:59:51.162Z,1.60
2018-01-30T11:02:20.564Z,2.50
2018-01-30T11:04:51.074Z,2.33
2018-01-30T11:07:19.410Z,2.00
2018-01-30T11:09:47.775Z,2.13
2018-01-30T11:12:16.529Z,2.00
2018-01-30T11:14:45.693Z,2.20
2018-01-30T11:17:14.425Z,2.57
2018-01-30T11:19:43.153Z,2.20
2018-01-30T11:22:12.995Z,2.30
2018-01-30T11:24:41.338Z,3.10
2018-01-30T11:27:09.665Z,2.47
2018-01-30T11:29:38.485Z,2.73
2018-01-30T11:32:06.838Z,2.70
2018-01-30T11:34:36.524Z,2.17
2018-01-30T11:37:05.588Z,2.90
2018-01-30T11:39:33.950Z,2.50
2018-01-30T11:42:02.366Z,3.17
2018-01-30T11:44:30.793Z,2.60
2018-01-30T11:46:59.873Z,2.37
2018-01-30T11:49:28.198Z,1.70
2018-01-30T11:51:56.839Z,2.00
2018-01-30T11:54:25.586Z,1.93
2018-01-30T11:56:53.975Z,2.17
2018-01-30T11:59:22.294Z,2.47
2018-01-30T12:01:51.267Z,1.93
2018-01-30T12:04:19.726Z,2.30
2018-01-30T12:06:48.103Z,2.20
2018-01-30T12:09:16.445Z,2.17
2018-01-30T12:11:44.827Z,1.70
2018-01-30T12:14:13.185Z,1.97
2018-01-30T12:16:41.538Z,2.23
2018-01-30T12:19:10.229Z,2.30
2018-01-30T12:21:39.092Z,2.20
2018-01-30T12:24:07.441Z,2.03
2018-01-30T12:26:35.810Z,2.50
2018-01-30T12:29:04.137Z,2.10
2018-01-30T12:31:32.521Z,2.50
2018-01-30T12:34:00.921Z,2.70
2018-01-30T12:36:29.329Z,2.63
2018-01-30T12:38:57.681Z,1.93
2018-01-30T12:41:26.399Z,2.60
2018-01-30T12:43:54.806Z,2.47
2018-01-30T12:46:23.142Z,2.17
2018-01-30T12:48:51.562Z,2.77
2018-01-30T12:51:20.269Z,2.33
2018-01-30T12:53:48.628Z,2.50
2018-01-30T12:56:16.962Z,2.30
2018-01-30T12:58:45.341Z,2.20
2018-01-30T13:01:13.686Z,2.40
2018-01-30T13:03:42.430Z,2.27
2018-01-30T13:06:10.810Z,2.30
2018-01-30T13:08:39.176Z,2.73
2018-01-30T13:11:07.524Z,2.23
2018-01-30T13:13:36.570Z,2.50
2018-01-30T13:16:04.898Z,2.30
2018-01-30T13:18:33.645Z,2.37
2018-01-30T13:21:02.024Z,2.30
2018-01-30T13:23:30.622Z,2.57
2018-01-30T13:25:58.958Z,2.60
2018-01-30T13:28:27.313Z,2.63
2018-01-30T13:30:55.963Z,2.20
2018-01-30T13:33:24.346Z,2.70
2018-01-30T13:35:53.026Z,2.30
2018-01-30T13:38:21.778Z,2.50
2018-01-30T13:40:50.136Z,2.10
2018-01-30T13:43:18.601Z,1.87
2018-01-30T13:45:47.386Z,1.90
2018-01-30T13:48:15.800Z,2.20
2018-01-30T13:50:44.196Z,2.50
2018-01-30T13:53:12.664Z,2.23
2018-01-30T13:55:41.130Z,2.00
2018-01-30T13:58:09.487Z,2.60
2018-01-30T14:00:37.920Z,2.63
2018-01-30T14:03:06.293Z,2.23
2018-01-30T14:05:34.698Z,2.13
2018-01-30T14:08:03.478Z,1.87
2018-01-30T14:10:31.894Z,2.03
2018-01-30T14:13:00.238Z,2.10
2018-01-30T14:15:28.799Z,1.90
2018-01-30T14:17:57.153Z,2.70
2018-01-30T14:20:25.594Z,2.30
2018-01-30T14:22:54.042Z,2.30
2018-01-30T14:25:22.513Z,2.47
2018-01-30T14:27:50.858Z,2.10
2018-01-30T14:30:19.350Z,2.23
2018-01-30T14:32:48.090Z,2.13
2018-01-30T14:35:16.879Z,1.90
2018-01-30T14:37:45.640Z,2.30
2018-01-30T14:40:14.120Z,1.80
2018-01-30T14:42:42.565Z,2.13
2018-01-30T14:45:11.379Z,1.97
2018-01-30T14:47:39.714Z,2.10
2018-01-30T14:50:08.782Z,2.00
2018-01-30T14:52:37.507Z,1.43
2018-01-30T14:55:05.927Z,1.57
2018-01-30T14:57:34.289Z,1.07
2018-01-30T15:00:02.606Z,1.63
2018-01-30T15:02:31.665Z,1.40
2018-01-30T15:05:00.011Z,1.60
2018-01-30T15:07:28.348Z,1.77
2018-01-30T15:09:57.117Z,1.50
2018-01-30T15:12:25.457Z,1.50
2018-01-30T15:14:53.787Z,1.60
2018-01-30T15:17:22.181Z,1.50
2018-01-30T15:19:50.651Z,1.30
2018-01-30T15:22:18.982Z,1.83
2018-01-30T15:24:47.388Z,1.57
2018-01-30T15:27:15.998Z,1.50
2018-01-30T15:29:44.326Z,1.60
2018-01-30T15:32:12.774Z,1.33
2018-01-30T15:34:41.517Z,1.57
2018-01-30T15:37:09.853Z,1.40
2018-01-30T15:39:38.234Z,1.60
2018-01-30T15:42:06.653Z,1.40
2018-01-30T15:44:35.014Z,1.37
2018-01-30T15:47:03.366Z,1.40
2018-01-30T15:49:31.754Z,1.30
2018-01-30T15:52:00.116Z,1.70
2018-01-30T15:54:28.509Z,1.40
2018-01-30T15:56:56.857Z,1.37
2018-01-30T15:59:26.258Z,1.47
2018-01-30T16:01:55.038Z,1.47
2018-01-30T16:04:23.802Z,1.50
2018-01-30T16:06:52.165Z,1.50
2018-01-30T16:09:20.537Z,1.40
2018-01-30T16:11:48.861Z,1.63
2018-01-30T16:14:17.604Z,1.43
2018-01-30T16:16:45.954Z,1.60
2018-01-30T16:19:14.274Z,1.57
2018-01-30T16:21:43.026Z,1.60
2018-01-30T16:24:11.670Z,1.20
2018-01-30T16:26:40.254Z,1.80
2018-01-30T16:29:08.566Z,1.50
2018-01-30T16:31:37.678Z,1.43
2018-01-30T16:34:06.057Z,1.53
2018-01-30T16:36:34.690Z,1.50
2018-01-30T16:39:03.029Z,1.40
2018-01-30T16:41:31.397Z,10.40
2018-01-30T16:43:59.799Z,1.50
2018-01-30T16:46:28.170Z,2.00
2018-01-30T16:48:56.511Z,1.90
2018-01-30T16:51:24.861Z,2.00
2018-01-30T16:53:53.240Z,2.00
2018-01-30T16:56:22.536Z,1.80
2018-01-30T16:58:50.996Z,1.90
2018-01-30T17:01:19.378Z,2.10
2018-01-30T17:03:48.159Z,2.23
2018-01-30T17:06:16.478Z,2.20
2018-01-30T17:08:45.256Z,2.27
2018-01-30T17:11:13.993Z,2.27
2018-01-30T17:13:42.430Z,2.20
2018-01-30T17:16:11.162Z,2.70
2018-01-30T17:18:39.504Z,3.00
2018-01-30T17:21:08.254Z,3.30
2018-01-30T17:23:36.574Z,3.67
2018-01-30T17:26:04.974Z,5.00
2018-01-30T17:28:33.350Z,4.43
2018-01-30T17:31:01.996Z,5.10
2018-01-30T17:33:30.748Z,5.40
2018-01-30T17:35:59.097Z,5.83
2018-01-30T17:38:27.449Z,5.23
2018-01-30T17:40:55.820Z,4.60
2018-01-30T17:43:24.607Z,5.20
2018-01-30T17:45:53.357Z,4.67
2018-01-30T17:48:21.714Z,4.03
2018-01-30T17:50:50.225Z,3.93
2018-01-30T17:53:18.578Z,4.00
2018-01-30T17:55:46.913Z,4.50
2018-01-30T17:58:15.744Z,3.37
2018-01-30T18:00:44.053Z,2.73
2018-01-30T18:03:12.374Z,3.07
2018-01-30T18:05:40.792Z,3.33
2018-01-30T18:08:09.152Z,2.87
2018-01-30T18:10:37.506Z,2.83
2018-01-30T18:13:05.870Z,2.73
2018-01-30T18:15:34.265Z,2.87
2018-01-30T18:18:02.919Z,2.63
2018-01-30T18:20:31.334Z,2.47
2018-01-30T18:22:59.678Z,2.30
2018-01-30T18:25:28.418Z,2.10
2018-01-30T18:27:56.771Z,2.60
2018-01-30T18:30:25.997Z,2.30
2018-01-30T18:32:54.937Z,2.10
2018-01-30T18:35:23.770Z,2.40
2018-01-30T18:37:52.095Z,2.43
2018-01-30T18:40:20.465Z,2.43
2018-01-30T18:42:48.815Z,2.17
2018-01-30T18:45:17.187Z,2.40
2018-01-30T18:47:45.641Z,2.47
2018-01-30T18:50:14.392Z,2.40
2018-01-30T18:52:42.890Z,2.33
2018-01-30T18:55:11.657Z,2.20
2018-01-30T18:57:39.979Z,2.57
2018-01-30T19:00:08.450Z,2.50
2018-01-30T19:02:36.821Z,2.30
2018-01-30T19:05:05.567Z,1.80
2018-01-30T19:07:33.926Z,2.47
2018-01-30T19:10:02.323Z,3.00
2018-01-30T19:12:31.093Z,2.03
2018-01-30T19:14:59.496Z,2.33
2018-01-30T19:17:27.865Z,2.13
2018-01-30T19:19:56.744Z,2.50
2018-01-30T19:22:25.136Z,2.27
2018-01-30T19:24:53.513Z,2.73
2018-01-30T19:27:22.492Z,2.90
2018-01-30T19:29:50.822Z,3.00
2018-01-30T19:32:19.589Z,3.33
2018-01-30T19:34:48.046Z,3.27
2018-01-30T19:37:16.373Z,3.30
2018-01-30T19:39:44.695Z,2.73
2018-01-30T19:42:13.039Z,2.70
2018-01-30T19:44:41.963Z,2.43
2018-01-30T19:47:10.291Z,3.07
2018-01-30T19:49:39.484Z,16.80
2018-01-30T19:52:08.232Z,27.13
2018-01-30T19:54:36.589Z,18.70
2018-01-30T19:57:04.958Z,16.10
2018-01-30T19:59:33.603Z,15.17
2018-01-30T20:02:01.965Z,13.20
2018-01-30T20:04:31.500Z,10.90
2018-01-30T20:07:00.258Z,11.37
2018-01-30T20:09:28.588Z,10.03
2018-01-30T20:11:56.984Z,9.67
2018-01-30T20:14:25.305Z,9.27
2018-01-30T20:16:53.637Z,7.67
2018-01-30T20:19:22.002Z,6.90
2018-01-30T20:21:50.728Z,7.43
2018-01-30T20:24:19.060Z,6.97
2018-01-30T20:26:47.474Z,6.13
2018-01-30T20:29:15.824Z,7.10
2018-01-30T20:31:44.173Z,10.30
2018-01-30T20:34:12.917Z,9.03
2018-01-30T20:36:41.711Z,7.77
2018-01-30T20:39:10.115Z,7.20
2018-01-30T20:41:38.876Z,6.83
2018-01-30T20:44:07.241Z,5.67
2018-01-30T20:46:35.679Z,6.90
2018-01-30T20:49:04.059Z,5.77
2018-01-30T20:51:32.402Z,5.80
2018-01-30T20:54:00.759Z,4.80
2018-01-30T20:56:29.096Z,4.33
2018-01-30T20:58:57.466Z,4.43
2018-01-30T21:01:25.802Z,4.60
2018-01-30T21:03:54.146Z,4.70
2018-01-30T21:06:23.214Z,4.47
2018-01-30T21:08:51.556Z,4.33
2018-01-30T21:11:19.908Z,3.77
2018-01-30T21:13:48.290Z,4.27
2018-01-30T21:16:16.671Z,3.77
2018-01-30T21:18:45.018Z,4.13
2018-01-30T21:21:13.398Z,3.83
2018-01-30T21:23:41.709Z,3.90
2018-01-30T21:26:10.306Z,3.53
2018-01-30T21:28:38.678Z,4.00
2018-01-30T21:31:07.081Z,3.80
2018-01-30T21:33:35.520Z,3.50
2018-01-30T21:36:03.846Z,3.93
2018-01-30T21:38:32.580Z,3.50
2018-01-30T21:41:00.931Z,4.03
2018-01-30T21:43:29.293Z,3.47
2018-01-30T21:48:38.602Z,4.53
2018-01-30T21:51:06.955Z,4.27
2018-01-30T21:53:35.355Z,4.67
2018-01-30T21:56:03.757Z,4.27
2018-01-30T21:58:32.129Z,4.10
2018-01-30T22:01:00.493Z,4.33
2018-01-30T22:03:28.827Z,4.27
2018-01-30T22:05:57.566Z,3.97
2018-01-30T22:08:25.923Z,4.20
2018-01-30T22:10:54.287Z,4.37
2018-01-30T22:13:22.619Z,3.97
2018-01-30T22:15:51.005Z,4.03
2018-01-30T22:18:19.359Z,4.10
2018-01-30T22:20:47.714Z,4.30
2018-01-30T22:23:16.099Z,3.90
2018-01-30T22:25:45.182Z,4.07
2018-01-30T22:28:13.493Z,3.90
2018-01-30T22:30:42.090Z,3.73
2018-01-30T22:33:10.471Z,4.07
2018-01-30T22:35:38.816Z,3.67
2018-01-30T22:38:07.132Z,4.63
2018-01-30T22:40:35.532Z,4.50
2018-01-30T22:43:04.185Z,4.00
2018-01-30T22:45:32.578Z,3.60
